Aeroporto :
LOGIN :

Iscrizione | Disclaimer

   EN    FR    IT 

 










Sommario :    VFR   VFR Marginale   IFR   IFR Intensivo   IFR Molto Intensivo
Visibilità : 
Base nubi : 
>= 8 km
>= 3000ft
5 / 8 km
1000 / 3000 ft
1500m / 5 km
500 / 1000 ft
800 / 1500m
200 / 500 ft
< 800m
< 200 ft
Simboli :   Temporali  Nebbia  Neve Forte  Precipitazioni Forti  Vento > 20 kt
SIGMETs :   Varie  Temporali  Ghiacco  Turbolenza  Onda orograficha  Ceneri Vulcaniche






- Altitudine del aeroporto : 935 ft


EBFS - Florennes

ULTIMO METAR :
  • 212355Z AUTO 02004KT 7000 FEW210/// M02/M04 Q1037 WHT

METARs OBSOLETI :
  • 212350Z AUTO VRB02KT 7000 FEW210/// M01/M03 Q1037 WHT
  • 212325Z AUTO 14003KT 9999 FEW210/// M01/M03 Q1037 BLU
  • 212255Z AUTO VRB02KT 9999 FEW220/// M00/M02 Q1037 BLU
  • 212225Z AUTO VRB02KT 9000 SCT200/// M01/M02 Q1038 BLU
  • 212155Z AUTO VRB01KT 9000 BKN210/// M01/M02 Q1038 BLU
  • 212125Z AUTO 03004KT 9000 SCT210/// M02/M03 Q1038 BLU

TAF TAF EBFS
Valido dal 21 a 19 ore il 22 a 07 ore UTC


211541Z 2119/2207 06005KT 6000 FEW280
BECMG 2121/2123 3000 BR
BECMG 2203/2206 VRB02KT 0500 FZFG BKN001



MetMap, La meteo Aeronautica in un colpo d'occhio ! - Copyright ORBIFLY Dicembre 2007 - Disclaimer

ORBIFLY MET'MAP TEAM :

Programmazione e sviluppo : Alexandra Zaïnal
Concezione : Baudouin d'Aumeries
Aiuto per la programmazione : Marc-Olivier Méhu
Supporto tecnico e logistico : Manuel Goepfert
Aiuto per la traduzione : Arnaldo La Scala

Contatto : metmap@orbifly.com




FONTI E CREDITI :

   NOAA